Flight Track Log - Related Links

Times and Time Zones

All times are in EDT time to prevent confusion due to time zone crossing. See the N81EZ flight status page for this flight to view local times or setup timezone preferences in your user account.

Time Position Orientation Groundspeed Altitude Reporting Facility
EDT Latitude Longitude Course Direction KTS MPH feet Rate Location/Type
Sat 04:23:13 PM 42.3467 -85.2992 316° Northwest 110 127 2,400  Level Chicago Center
Sat 04:24:15 PM 42.3742 -85.3317 319° Northwest 126 145 2,400  Level Chicago Center
Sat 04:25:17 PM 42.4072 -85.3742 316° Northwest 135 155 2,400  Level Chicago Center
Sat 04:26:18 PM 42.4347 -85.4106 316° Northwest 138 159 2,400  Level Chicago Center
Sat 04:27:00 PM 42.4703 -85.4608 317° Northwest  Level Estimated
Sat 04:27:20 PM 42.4625 -85.4472 316° Northwest 140 161 2,400  Level Chicago Center
Sat 04:28:00 PM 42.4976 -85.4960 316° Northwest  Level Estimated
Sat 04:28:22 PM 42.4906 -85.4833 317° Northwest 139 160 2,300  Level Chicago Center
Sat 04:29:23 PM 42.5178 -85.5197 315° West 138 159 2,300  Level Chicago Center
Sat 04:30:25 PM 42.5444 -85.5550 316° Northwest 136 157 2,300 48 Level Chicago Center
Sat 04:31:27 PM 42.5714 -85.5889 317° Northwest 133 153 2,400 48 Climbing Chicago Center
Sat 04:32:29 PM 42.6042 -85.6311 317° Northwest 135 155 2,400 -49 Level Chicago Center
Sat 04:33:30 PM 42.6314 -85.6681 315° West 136 157 2,300 -49 Descending Chicago Center
Sat 04:34:32 PM 42.6611 -85.7058 317° Northwest 141 162 2,300 48 Level Chicago Center
Sat 04:35:34 PM 42.6883 -85.7422 316° Northwest 141 162 2,400  Climbing Chicago Center
Sat 04:36:35 PM 42.7164 -85.7789 316° Northwest 140 161 2,300 -49 Descending Chicago Center
Sat 04:37:37 PM 42.7444 -85.8156 316° Northwest 140 161 2,300  Level Chicago Center
Sat 04:38:39 PM 42.7708 -85.8522 314° West 138 159 2,300 49 Level Chicago Center
Sat 04:39:40 PM 42.8033 -85.8967 315° West 138 159 2,400  Climbing Chicago Center
Sat 04:40:42 PM 42.8308 -85.9336 315° West 138 159 2,300 -48 Descending Chicago Center
Sat 04:41:44 PM 42.8586 -85.9700 316° Northwest 138 159 2,300 49 Level Chicago Center
Sat 04:42:45 PM 42.8844 -86.0078 313° West 138 159 2,400 49 Climbing Chicago Center
Sat 04:43:47 PM 42.9136 -86.0414 320° Northwest 136 157 2,400  Level Chicago Center
Sat 04:44:49 PM 42.9411 -86.0733 320° Northwest 136 157 2,400  Level Chicago Center

Login

Don't have an account? Register now (free) for customized features, flight alerts, and more!